Bookmark and Share
Track history (hours):
 

Hanjin Chongqing

Last reported at 2014-Apr-11 12:29 UTC. Time now 2014-Apr-17 15:34 UTC.
Position N 40°56' W 127°18'.

Length 304 m; draft 11.1 m.

Type: Cargo ship. MMSI: 353958000.

NotesDate/timePositionNaut miles runAvg speedWind from/ knotsBaromVisibWave heightAir tempDewpointWater temp
2014-Apr-11 12:29N 40°56' W 127°18'13313.1
2014-Apr-11 02:19N 39°28' W 125°08'1013.4
2014-Apr-11 01:33N 39°21' W 124°58'1313.3
2014-Apr-11 00:33N 39°12' W 124°46'1313.3
2014-Apr-10 23:33N 39°02' W 124°33'1413.5
2014-Apr-10 22:33N 38°53' W 124°20'1413.9
2014-Apr-10 21:33N 38°44' W 124°07'1313.2
2014-Apr-10 20:33N 38°35' W 123°55'1312.5
2014-Apr-10 19:33N 38°26' W 123°43'1312.5
2014-Apr-10 18:33N 38°17' W 123°32'1312.7
2014-Apr-10 17:33N 38°09' W 123°20'1312.9
2014-Apr-10 16:33N 37°59' W 123°09'1312.9
2014-Apr-10 15:33N 37°52' W 122°55'1312.9
2014-Apr-10 14:33N 37°46' W 122°41'1312.6
2014-Apr-10 13:33N 37°51' W 122°26'7 6.4
2014-Apr-10 12:31N 37°48' W 122°19'0 0.0
2014-Apr-10 11:31N 37°48' W 122°19'0 0.0
2014-Apr-10 10:31N 37°48' W 122°19'0 0.0
2014-Apr-10 09:31N 37°48' W 122°19'0 0.0
2014-Apr-10 08:31N 37°48' W 122°19'0 0.0
2014-Apr-10 07:31N 37°48' W 122°19'0 0.0
2014-Apr-10 06:31N 37°48' W 122°19'0 0.0
2014-Apr-10 05:31N 37°48' W 122°19'0 0.0
2014-Apr-10 01:25N 37°48' W 122°19'0 0.1
2014-Apr-10 00:33N 37°48' W 122°19'1 0.5
2014-Apr-09 23:33N 37°48' W 122°19'1110.9
2014-Apr-09 22:33N 37°47' W 122°33'1313.4
2014-Apr-09 21:33N 37°41' W 122°48'1515.4
2014-Apr-09 20:33N 37°31' W 123°03'1716.8
2014-Apr-09 19:33N 37°14' W 122°59'2221.8
2014-Apr-09 18:34N 36°54' W 122°50'2323.0
2014-Apr-09 17:33N 36°33' W 122°39'2322.8
2014-Apr-09 16:33N 36°12' W 122°28'2322.6
2014-Apr-09 15:33N 35°52' W 122°14'2323.1
2014-Apr-09 14:33N 35°34' W 121°57'2323.1
2014-Apr-09 13:33N 35°15' W 121°39'2322.9
2014-Apr-09 12:32N 34°57' W 121°22'5718.9
2014-Apr-09 09:31N 34°21' W 120°28'2016.9
2014-Apr-09 08:20N 34°16' W 120°05'1716.9
2014-Apr-09 07:18N 34°11' W 119°44'1316.9
2014-Apr-09 06:33N 34°08' W 119°30'1716.8
2014-Apr-09 05:33N 34°02' W 119°10'1616.4
2014-Apr-09 04:33N 33°54' W 118°53'1515.0
2014-Apr-09 03:33N 33°47' W 118°38'1211.7
2014-Apr-09 02:33N 33°41' W 118°26'9 9.0
2014-Apr-09 01:33N 33°42' W 118°15'3 2.3
2014-Apr-09 00:06N 33°45' W 118°16'0 0.0
2014-Apr-08 23:33N 33°45' W 118°16'0 0.0
2014-Apr-08 22:33N 33°45' W 118°16'0 0.0
2014-Apr-08 20:30N 33°45' W 118°16'0 0.0
2014-Apr-08 19:30N 33°45' W 118°16'0 0.0
2014-Apr-08 18:30N 33°45' W 118°16'0 0.0
2014-Apr-08 17:33N 33°45' W 118°16'0 0.0
2014-Apr-08 16:03N 33°45' W 118°16'0 0.0
2014-Apr-08 14:27N 33°45' W 118°16'0 0.0
2014-Apr-08 13:21N 33°45' W 118°16'0 0.0
2014-Apr-08 11:15N 33°45' W 118°16'0 0.0
2014-Apr-08 10:33N 33°45' W 118°16'0 0.0
2014-Apr-08 09:33N 33°45' W 118°16'0 0.0
2014-Apr-08 08:33N 33°45' W 118°16'0 0.0
2014-Apr-08 07:33N 33°45' W 118°16'0 0.0
2014-Apr-08 05:30N 33°45' W 118°16'0 0.0
2014-Apr-08 03:33N 33°45' W 118°16'0 0.0
2014-Apr-07 06:23N 33°45' W 118°16'0 0.0
2014-Apr-07 05:32N 33°45' W 118°16'0 0.0
2014-Apr-07 04:32N 33°45' W 118°16'0 0.0
2014-Apr-07 03:32N 33°45' W 118°16'0 0.0
2014-Apr-07 02:32N 33°45' W 118°16'0 0.0
2014-Apr-07 01:32N 33°45' W 118°16'0 0.0
2014-Apr-07 00:32N 33°45' W 118°16'0 0.0
2014-Apr-06 23:32N 33°45' W 118°16'0 0.0
2014-Apr-06 22:32N 33°45' W 118°16'0 0.0
2014-Apr-06 21:32N 33°45' W 118°16'0 0.0
2014-Apr-06 20:32N 33°45' W 118°16'0 0.0
2014-Apr-06 19:32N 33°45' W 118°16'0 0.0
2014-Apr-06 18:32N 33°45' W 118°16'0 0.0
2014-Apr-06 17:32N 33°45' W 118°16'0 0.0
2014-Apr-06 14:14N 33°45' W 118°16'0 0.0
2014-Apr-06 13:32N 33°45' W 118°16'0 0.0
2014-Apr-06 12:32N 33°45' W 118°16'0 0.0
2014-Apr-06 11:32N 33°45' W 118°16'0 0.0
2014-Apr-06 10:32N 33°45' W 118°16'0 0.0
2014-Apr-06 02:31N 33°45' W 118°16'2 1.9
2014-Apr-06 01:33N 33°44' W 118°16'7 6.6
2014-Apr-06 00:33N 33°38' W 118°14'5 4.8
2014-Apr-05 23:33N 33°33' W 118°15'1 1.5
2014-Apr-05 22:33N 33°33' W 118°17'5 4.9
2014-Apr-05 21:29N 33°37' W 118°22'29212.6
2014-Apr-04 22:21N 35°49' W 123°39'1113.8
2014-Apr-04 21:32N 35°55' W 123°51'  

Dump ship's entire track history

sailing weather and tide predictions

Hanjin Chongqing — 3EPJ2 — position and weather